Time;durP1;ratioP1;P1;durP2;ratioP2;P2;SDS_P1;SDS_P2;PMS_P1;PMS_P2;Temp;Humidity;BMP_temperature;BMP_pressure;BME280_temperature;BME280_humidity;BME280_pressure;Samples;Min_cycle;Max_cycle;Signal;HPM_P1;HPM_P2
2023/05/15 00:01:09;;;;;;;;;;;;;;;12.60;95.45;100389.09;5032317;28;20097;-67
2023/05/15 00:04:12;;;;;;;3.42;2.13;;;;;;;12.63;95.71;100389.75;5035912;28;19924;-68
2023/05/15 00:07:16;;;;;;;4.47;2.38;;;;;;;12.60;95.55;100386.47;5036030;28;20048;-68
2023/05/15 00:10:20;;;;;;;4.60;2.28;;;;;;;12.65;94.69;100385.25;5035855;28;20036;-68
2023/05/15 00:13:23;;;;;;;7.50;2.50;;;;;;;12.54;95.26;100395.59;5036112;28;20068;-69
2023/05/15 00:16:27;;;;;;;3.78;2.65;;;;;;;12.51;95.70;100388.75;5035572;28;20469;-68
2023/05/15 00:19:30;;;;;;;6.70;3.00;;;;;;;12.45;96.20;100390.94;5035603;28;20507;-68
2023/05/15 00:22:34;;;;;;;3.47;2.70;;;;;;;12.39;96.43;100396.53;5035500;28;20417;-69
2023/05/15 00:25:37;;;;;;;6.18;2.70;;;;;;;12.49;95.97;100390.63;5035735;28;20044;-69
2023/05/15 00:28:40;;;;;;;4.28;2.35;;;;;;;12.55;94.60;100389.41;5035900;28;20048;-68
2023/05/15 00:31:44;;;;;;;4.80;2.15;;;;;;;12.53;93.88;100388.66;5023198;28;20047;-69
2023/05/15 00:34:47;;;;;;;4.35;2.35;;;;;;;12.44;94.51;100383.97;5035248;28;20044;-69
2023/05/15 00:37:50;;;;;;;;;;;;;;;12.20;95.56;100371.47;5023545;28;20099;-67
2023/05/15 00:40:55;;;;;;;6.97;2.17;;;;;;;12.28;96.10;100379.72;5035114;28;20456;-69
2023/05/15 00:44:02;;;;;;;3.83;2.47;;;;;;;12.39;95.06;100380.81;5023187;28;20045;-69
2023/05/15 00:47:06;;;;;;;4.22;2.42;;;;;;;12.45;95.06;100375.19;5035227;28;20084;-68
2023/05/15 00:50:13;;;;;;;5.90;2.40;;;;;;;12.27;95.61;100372.75;5035339;28;20088;-69
2023/05/15 00:53:17;;;;;;;6.05;2.85;;;;;;;12.02;96.49;100367.31;5022981;28;20048;-68
2023/05/15 00:56:23;;;;;;;5.13;2.63;;;;;;;12.15;96.58;100368.25;5035043;28;20128;-68
2023/05/15 00:59:29;;;;;;;5.60;2.40;;;;;;;12.16;96.08;100369.13;5034872;28;20111;-68
2023/05/15 01:02:32;;;;;;;7.63;2.78;;;;;;;12.00;97.39;100374.47;5022350;28;20420;-69
2023/05/15 01:05:37;;;;;;;3.53;2.63;;;;;;;12.08;96.91;100372.19;5022596;28;20508;-69
2023/05/15 01:08:47;;;;;;;10.00;2.85;;;;;;;12.13;95.93;100366.69;5034771;28;20110;-68
2023/05/15 01:11:53;;;;;;;3.78;2.72;;;;;;;12.18;96.74;100373.31;5034711;28;20437;-68
2023/05/15 01:14:56;;;;;;;5.20;2.58;;;;;;;12.24;96.15;100370.31;5034651;28;20143;-69
2023/05/15 01:18:00;;;;;;;3.92;2.75;;;;;;;12.23;95.70;100368.66;5034569;28;20504;-68
2023/05/15 01:21:09;;;;;;;5.32;3.20;;;;;;;12.23;95.83;100365.19;5034573;28;20048;-68
2023/05/15 01:24:24;;;;;;;4.63;3.15;;;;;;;12.23;95.31;100373.88;5010910;28;20049;-68
2023/05/15 01:27:38;;;;;;;3.78;2.88;;;;;;;12.32;94.80;100375.94;5022201;28;20112;-69
2023/05/15 01:30:44;;;;;;;4.55;3.40;;;;;;;12.15;95.22;100375.28;5034502;28;20055;-68
2023/05/15 01:33:53;;;;;;;4.82;2.92;;;;;;;12.26;94.79;100375.47;5022138;28;20045;-68
2023/05/15 01:37:01;;;;;;;4.15;3.08;;;;;;;12.26;94.08;100376.31;5022138;28;20136;-69
2023/05/15 01:40:09;;;;;;;8.80;3.30;;;;;;;12.12;94.53;100370.22;5022024;28;20508;-69
2023/05/15 01:43:20;;;;;;;5.75;2.88;;;;;;;12.12;93.48;100368.44;5034168;28;20096;-69
2023/05/15 01:46:28;;;;;;;5.10;2.88;;;;;;;12.14;93.21;100365.75;5034242;28;20080;-68
2023/05/15 01:49:32;;;;;;;5.55;2.72;;;;;;;12.16;93.21;100364.72;5034135;28;20144;-69
2023/05/15 01:52:39;;;;;;;5.65;2.88;;;;;;;12.07;93.42;100362.66;5033686;28;20092;-69
2023/05/15 01:55:43;;;;;;;6.55;2.95;;;;;;;12.04;93.72;100362.84;5021688;28;20052;-68
2023/05/15 01:58:48;;;;;;;5.45;2.60;;;;;;;12.04;93.46;100355.00;5021563;28;20505;-69
2023/05/15 02:01:51;;;;;;;4.55;2.95;;;;;;;12.04;93.10;100360.22;5021154;28;20157;-69
2023/05/15 02:04:55;;;;;;;3.90;2.97;;;;;;;12.09;93.05;100369.50;5001631;28;20107;-69
2023/05/15 02:08:02;;;;;;;3.13;2.53;;;;;;;12.03;93.39;100363.78;5013830;28;20052;-69
2023/05/15 02:11:05;;;;;;;4.85;3.10;;;;;;;11.98;93.77;100361.44;5001504;28;20041;-69
2023/05/15 02:14:11;;;;;;;5.18;3.00;;;;;;;11.90;93.44;100357.59;5013845;28;20045;-69
2023/05/15 02:17:17;;;;;;;5.68;2.38;;;;;;;11.92;93.51;100348.69;5001566;28;20425;-69
2023/05/15 02:20:21;;;;;;;5.40;3.17;;;;;;;11.96;93.40;100359.84;5001503;28;20091;-69
2023/05/15 02:23:24;;;;;;;7.43;3.78;;;;;;;11.95;93.67;100350.31;5001556;28;20049;-69
2023/05/15 02:26:27;;;;;;;;;;;;;;;11.92;93.41;100350.50;5014308;28;20137;-68
2023/05/15 02:29:40;;;;;;;7.30;3.30;;;;;;;11.86;93.42;100352.53;5013568;28;19919;-69
2023/05/15 02:33:24;;;;;;;5.13;3.13;;;;;;;11.79;93.93;100345.94;5001340;28;20045;-69
2023/05/15 02:36:32;;;;;;;3.75;2.45;;;;;;;11.89;93.21;100343.66;5001246;28;20119;-69
2023/05/15 02:39:39;;;;;;;5.05;2.78;;;;;;;11.93;92.90;100353.00;5013466;28;20048;-68
2023/05/15 02:42:45;;;;;;;4.80;3.28;;;;;;;11.71;93.07;100348.22;5001185;28;20045;-69
2023/05/15 02:45:51;;;;;;;4.95;3.17;;;;;;;11.54;93.92;100343.94;5013194;28;20409;-68
2023/05/15 02:48:55;;;;;;;5.65;2.85;;;;;;;11.77;93.32;100352.22;5013468;28;20205;-69
2023/05/15 02:51:58;;;;;;;4.65;2.60;;;;;;;11.79;92.85;100350.34;5013150;28;20049;-69
2023/05/15 02:55:02;;;;;;;5.00;3.75;;;;;;;11.52;93.48;100347.59;5000986;28;20085;-69
2023/05/15 02:58:09;;;;;;;5.97;3.42;;;;;;;11.26;94.83;100347.34;5013021;28;20045;-69
2023/05/15 03:01:12;;;;;;;5.43;3.65;;;;;;;11.20;95.59;100349.47;5019916;28;20386;-68
2023/05/15 03:04:16;;;;;;;8.35;3.28;;;;;;;10.65;99.10;100342.97;5032139;28;20104;-69
2023/05/15 03:07:19;;;;;;;;;;;;;;;10.79;98.34;100352.69;5021241;28;20456;-69
2023/05/15 03:10:23;;;;;;;3.78;3.10;;;;;;;10.91;98.02;100347.59;5032528;28;19947;-68
2023/05/15 03:13:26;;;;;;;3.47;3.05;;;;;;;11.13;96.44;100346.34;5032673;28;20064;-69
2023/05/15 03:16:29;;;;;;;3.40;3.10;;;;;;;11.31;95.42;100347.91;5032619;28;20821;-68
2023/05/15 03:19:33;;;;;;;6.10;2.70;;;;;;;11.24;94.23;100351.84;5032488;28;20072;-68
2023/05/15 03:22:36;;;;;;;4.43;2.72;;;;;;;11.22;92.64;100348.44;5032545;28;20409;-69
2023/05/15 03:25:40;;;;;;;5.00;2.20;;;;;;;10.95;91.97;100348.28;5032441;28;20096;-69
2023/05/15 03:28:43;;;;;;;6.18;2.70;;;;;;;10.98;91.86;100348.09;5032463;28;20044;-70
2023/05/15 03:31:46;;;;;;;6.55;2.28;;;;;;;10.94;91.36;100342.19;5020165;28;20053;-69
2023/05/15 03:34:50;;;;;;;4.30;2.05;;;;;;;10.91;91.59;100350.22;5020035;28;20043;-68
2023/05/15 03:37:53;;;;;;;8.38;2.70;;;;;;;10.90;90.80;100340.66;5020114;28;20092;-69
2023/05/15 03:40:56;;;;;;;5.32;2.25;;;;;;;10.76;90.84;100345.00;5032153;28;20044;-68
2023/05/15 03:44:00;;;;;;;6.05;2.47;;;;;;;10.68;90.85;100346.25;5032154;28;20107;-68
2023/05/15 03:47:03;;;;;;;;;;;;;;;10.65;89.99;100345.56;5020871;28;20056;-68
2023/05/15 03:50:09;;;;;;;5.97;2.15;;;;;;;10.43;89.75;100345.91;5020303;28;20357;-69
2023/05/15 03:53:12;;;;;;;6.25;2.33;;;;;;;10.46;89.31;100348.34;5019915;28;20040;-67
2023/05/15 03:56:15;;;;;;;;;;;;;;;10.55;88.96;100349.63;5020817;28;20088;-67
2023/05/15 03:59:19;;;;;;;4.53;1.92;;;;;;;10.60;88.49;100351.06;5032502;28;19959;-69
2023/05/15 04:02:22;;;;;;;4.35;1.80;;;;;;;10.49;89.34;100350.81;5032056;28;20049;-67
2023/05/15 04:05:26;;;;;;;4.45;2.00;;;;;;;10.45;89.42;100344.91;5032264;28;20079;-68
2023/05/15 04:08:30;;;;;;;5.85;2.33;;;;;;;10.47;88.88;100344.84;5032276;28;20044;-68
2023/05/15 04:11:33;;;;;;;3.40;1.95;;;;;;;10.35;89.06;100354.19;5032253;28;20072;-69
2023/05/15 04:14:36;;;;;;;;;;;;;;;10.36;88.91;100349.78;5032665;28;20040;-70
2023/05/15 04:17:39;;;;;;;5.43;1.80;;;;;;;10.46;88.41;100357.06;5034415;28;20332;-68
2023/05/15 04:20:42;;;;;;;;;;;;;;;10.37;88.58;100354.94;5035232;28;20520;-69
2023/05/15 04:23:45;;;;;;;9.23;2.50;;;;;;;10.29;89.01;100359.72;5034301;28;20328;-70
2023/05/15 04:26:49;;;;;;;3.30;1.90;;;;;;;10.33;89.35;100349.97;5034455;28;20052;-70
2023/05/15 04:29:52;;;;;;;;;;;;;;;10.39;89.36;100349.63;5034638;28;20469;-69
2023/05/15 04:32:59;;;;;;;3.25;2.17;;;;;;;10.34;89.72;100356.84;5034604;28;19924;-69
2023/05/15 04:36:03;;;;;;;4.97;1.98;;;;;;;10.35;89.41;100367.25;5035287;28;20048;-69
2023/05/15 04:39:08;;;;;;;5.43;1.90;;;;;;;10.37;89.70;100367.16;5035354;28;20075;-77
2023/05/15 04:43:09;;;;;;;13.00;2.35;;;;;;;10.35;90.59;100369.88;5035274;28;20056;-70
2023/05/15 04:46:12;;;;;;;4.03;2.33;;;;;;;10.50;89.83;100369.94;5035676;28;20117;-70
2023/05/15 04:49:15;;;;;;;3.35;1.90;;;;;;;10.49;90.05;100366.50;5033212;28;20476;-70
2023/05/15 04:52:19;;;;;;;5.72;2.35;;;;;;;10.48;89.80;100363.03;5034910;28;20071;-69
2023/05/15 04:55:23;;;;;;;3.53;2.10;;;;;;;10.36;88.64;100374.16;5034528;28;20413;-70
2023/05/15 04:58:26;;;;;;;4.80;2.08;;;;;;;10.45;88.77;100378.88;5035069;28;20040;-70
2023/05/15 05:01:30;;;;;;;5.53;2.35;;;;;;;10.59;88.75;100387.75;5034892;28;20052;-70
2023/05/15 05:04:33;;;;;;;3.45;2.40;;;;;;;10.72;87.67;100386.19;5034896;28;20044;-70
2023/05/15 05:07:36;;;;;;;;;;;;;;;10.85;87.25;100379.34;5035444;28;20044;-69
2023/05/15 05:10:39;;;;;;;4.33;2.53;;;;;;;10.78;88.61;100377.97;5035069;28;19971;-69
2023/05/15 05:13:43;;;;;;;7.53;2.55;;;;;;;10.70;89.09;100380.19;5034877;28;20044;-69
2023/05/15 05:16:46;;;;;;;5.93;2.20;;;;;;;10.75;89.37;100378.13;5034766;28;20188;-69
2023/05/15 05:19:49;;;;;;;;;;;;;;;10.69;90.35;100378.50;5035187;28;20044;-70
2023/05/15 05:22:52;;;;;;;4.68;2.40;;;;;;;10.53;90.76;100377.63;5034845;28;20411;-69
2023/05/15 05:25:56;;;;;;;7.57;2.63;;;;;;;10.60;90.93;100376.38;5034760;28;20123;-68
2023/05/15 05:28:59;;;;;;;8.45;4.10;;;;;;;10.83;89.88;100381.19;5033824;28;20111;-68
2023/05/15 05:32:02;;;;;;;14.73;5.28;;;;;;;10.83;90.63;100375.94;5034518;28;20049;-68
2023/05/15 05:35:06;;;;;;;7.15;5.30;;;;;;;10.77;92.93;100381.50;5034563;28;20413;-68
2023/05/15 05:38:09;;;;;;;15.00;8.57;;;;;;;10.92;93.20;100375.44;5034511;28;20048;-68
2023/05/15 05:41:12;;;;;;;;;;;;;;;10.88;93.23;100367.81;5034836;28;20496;-70
2023/05/15 05:44:15;;;;;;;7.40;5.00;;;;;;;11.10;92.23;100372.69;5034356;28;20056;-68
2023/05/15 05:47:21;;;;;;;;;;;;;;;11.14;91.68;100377.69;5034980;28;20077;-68
2023/05/15 05:50:24;;;;;;;13.25;8.77;;;;;;;11.21;92.20;100375.56;5034226;28;20019;-68
2023/05/15 05:53:27;;;;;;;18.58;13.32;;;;;;;11.37;91.42;100386.84;5034202;28;20087;-75
2023/05/15 05:56:30;;;;;;;;;;;;;;;11.41;92.76;100375.25;5034507;28;20461;-68
2023/05/15 05:59:34;;;;;;;6.55;4.90;;;;;;;11.40;92.73;100370.94;5034070;28;20419;-68
2023/05/15 06:02:37;;;;;;;11.55;5.63;;;;;;;11.49;93.11;100368.75;5033915;28;20080;-68
2023/05/15 06:05:41;;;;;;;;;;;;;;;11.65;92.69;100361.66;5034478;28;20132;-69
2023/05/15 06:08:47;;;;;;;11.50;7.57;;;;;;;11.81;91.72;100365.06;5033953;28;20034;-68
2023/05/15 06:11:51;;;;;;;10.05;7.72;;;;;;;12.04;90.73;100361.06;5033907;28;20091;-68
2023/05/15 06:14:54;;;;;;;10.32;7.28;;;;;;;12.03;90.85;100366.41;5033839;28;20057;-68
2023/05/15 06:17:58;;;;;;;12.98;8.30;;;;;;;12.16;90.29;100369.97;5033764;28;20044;-68
2023/05/15 06:21:01;;;;;;;9.98;8.00;;;;;;;12.14;92.49;100374.44;5033793;28;20040;-68
2023/05/15 06:24:05;;;;;;;12.27;8.88;;;;;;;12.20;91.42;100381.94;5033832;28;20072;-69
2023/05/15 06:27:08;;;;;;;13.32;11.57;;;;;;;12.31;91.27;100363.75;5033630;28;20069;-68
2023/05/15 06:30:12;;;;;;;13.85;11.40;;;;;;;12.43;92.15;100358.69;5033572;28;20041;-68
2023/05/15 06:33:15;;;;;;;14.77;10.93;;;;;;;12.51;92.58;100361.69;5033428;28;20080;-68
2023/05/15 06:36:18;;;;;;;14.18;12.20;;;;;;;12.60;92.01;100350.59;5033698;28;20064;-68
2023/05/15 06:39:22;;;;;;;16.33;11.52;;;;;;;12.73;91.64;100359.41;5033540;28;20108;-77
2023/05/15 06:42:25;;;;;;;15.98;12.70;;;;;;;12.93;91.58;100352.03;5033375;28;20543;-77
2023/05/15 06:45:29;;;;;;;14.38;12.05;;;;;;;13.00;91.95;100356.75;5033529;28;20052;-77
2023/05/15 06:48:32;;;;;;;17.00;12.05;;;;;;;13.10;91.94;100367.50;5033382;28;20080;-77
2023/05/15 06:51:36;;;;;;;15.82;12.07;;;;;;;13.18;91.26;100364.41;5033225;28;20409;-68
2023/05/15 06:54:40;;;;;;;17.65;13.55;;;;;;;13.22;91.90;100366.69;5033205;28;20144;-67
2023/05/15 06:57:43;;;;;;;19.85;14.48;;;;;;;13.39;91.06;100354.28;5033386;28;20047;-66
2023/05/15 07:00:47;;;;;;;22.15;16.85;;;;;;;13.50;89.48;100351.78;5032716;28;20049;-77
2023/05/15 07:03:52;;;;;;;24.90;17.52;;;;;;;13.62;91.12;100343.03;5032767;28;20107;-76
2023/05/15 07:06:56;;;;;;;21.10;18.25;;;;;;;13.72;89.94;100338.03;5032928;28;20092;-75
2023/05/15 07:09:59;;;;;;;43.45;25.83;;;;;;;13.95;89.75;100345.16;5032884;28;20048;-73
2023/05/15 07:13:02;;;;;;;39.10;25.15;;;;;;;14.13;88.45;100342.19;5032867;28;20083;-73
2023/05/15 07:16:06;;;;;;;42.38;27.25;;;;;;;14.22;87.35;100341.56;5032839;28;20047;-73
2023/05/15 07:19:12;;;;;;;44.78;29.52;;;;;;;14.39;89.21;100343.84;5032827;28;20052;-72
2023/05/15 07:22:16;;;;;;;42.33;29.60;;;;;;;14.60;87.80;100335.38;5032740;28;20512;-72
2023/05/15 07:25:19;;;;;;;42.90;31.58;;;;;;;14.64;86.78;100337.72;5032654;28;20048;-74
2023/05/15 07:28:41;;;;;;;44.10;31.67;;;;;;;14.75;83.56;100341.34;5032857;28;20044;-76
2023/05/15 07:31:44;;;;;;;40.95;30.33;;;;;;;14.75;83.24;100351.88;5032604;28;20048;-74
2023/05/15 07:34:47;;;;;;;41.83;28.52;;;;;;;14.78;82.04;100339.31;5032636;28;20056;-74
2023/05/15 07:37:50;;;;;;;38.83;30.38;;;;;;;14.84;80.99;100345.94;5020716;28;20405;-74
2023/05/15 07:40:54;;;;;;;39.97;31.83;;;;;;;14.88;80.34;100355.28;5032588;28;20044;-74
2023/05/15 07:43:57;;;;;;;41.15;30.85;;;;;;;14.91;80.87;100346.34;5032508;28;20048;-68
2023/05/15 07:47:03;;;;;;;41.03;31.10;;;;;;;15.05;80.59;100349.63;5032560;28;20044;-68
2023/05/15 07:50:07;;;;;;;40.50;32.65;;;;;;;15.13;80.25;100342.97;5032516;28;20068;-68
2023/05/15 07:53:10;;;;;;;37.22;29.75;;;;;;;14.96;79.79;100347.66;5036348;28;20066;-74
2023/05/15 07:56:13;;;;;;;44.95;30.30;;;;;;;15.05;82.08;100346.16;5036364;28;20044;-74
2023/05/15 07:59:17;;;;;;;38.65;31.92;;;;;;;15.06;80.60;100345.19;5036452;28;20048;-73
2023/05/15 08:02:20;;;;;;;40.80;32.95;;;;;;;15.25;82.50;100349.94;5023791;28;20072;-74
2023/05/15 08:05:24;;;;;;;39.17;32.33;;;;;;;15.39;80.13;100344.47;5036204;28;20048;-74
2023/05/15 08:08:27;;;;;;;38.75;34.55;;;;;;;14.89;77.73;100341.16;5036250;28;20048;-69
2023/05/15 08:11:30;;;;;;;41.63;33.22;;;;;;;15.07;78.09;100338.97;5036050;28;20527;-68
2023/05/15 08:14:34;;;;;;;40.60;33.78;;;;;;;15.03;80.00;100345.44;5035946;28;20048;-68
2023/05/15 08:17:37;;;;;;;43.22;33.70;;;;;;;14.93;78.69;100349.69;5035951;28;20084;-69
2023/05/15 08:20:41;;;;;;;42.63;34.47;;;;;;;14.91;78.87;100344.53;5036057;28;20040;-68
2023/05/15 08:23:44;;;;;;;45.58;36.40;;;;;;;15.05;78.75;100344.34;5036086;28;20129;-68
2023/05/15 08:26:47;;;;;;;41.67;33.58;;;;;;;15.21;78.26;100340.59;5036024;28;20040;-68
2023/05/15 08:29:53;;;;;;;44.47;35.60;;;;;;;15.39;77.80;100346.28;5034450;28;20555;-68
2023/05/15 08:32:56;;;;;;;42.35;33.40;;;;;;;15.41;76.74;100342.59;5035711;28;20091;-69
2023/05/15 08:36:08;;;;;;;40.17;34.78;;;;;;;15.54;78.23;100345.97;5035773;28;20040;-68
2023/05/15 08:39:12;;;;;;;44.00;35.10;;;;;;;15.65;77.69;100345.13;5035732;28;20424;-69
2023/05/15 08:42:58;;;;;;;45.00;35.50;;;;;;;15.63;79.25;100344.41;5035551;28;20056;-69
2023/05/15 08:46:10;;;;;;;46.17;35.03;;;;;;;15.80;78.75;100341.38;5035877;28;20191;-69
2023/05/15 08:49:24;;;;;;;41.70;35.08;;;;;;;15.92;78.84;100341.34;5035754;28;20084;-68
2023/05/15 08:52:27;;;;;;;49.90;35.65;;;;;;;15.88;78.27;100334.66;5035308;28;20453;-68
2023/05/15 08:55:31;;;;;;;43.90;35.75;;;;;;;15.62;74.61;100334.00;5035293;28;20069;-68
2023/05/15 08:58:34;;;;;;;44.88;34.53;;;;;;;15.81;74.81;100334.28;5023065;28;20052;-69
2023/05/15 09:01:37;;;;;;;36.45;32.33;;;;;;;16.04;75.58;100338.59;5022908;28;20045;-69
2023/05/15 09:04:40;;;;;;;41.80;33.28;;;;;;;16.19;74.42;100333.94;5000925;28;20052;-69
2023/05/15 09:07:46;;;;;;;40.40;32.60;;;;;;;16.16;71.16;100333.34;5013776;28;20608;-68
2023/05/15 09:10:52;;;;;;;34.35;30.70;;;;;;;16.23;73.14;100326.63;5014660;28;20044;-69
2023/05/15 09:13:58;;;;;;;33.25;29.05;;;;;;;16.16;71.00;100325.44;5014077;28;20072;-67
2023/05/15 09:17:01;;;;;;;41.67;30.83;;;;;;;16.25;71.42;100332.63;5001240;28;20468;-67
2023/05/15 09:20:06;;;;;;;34.33;29.98;;;;;;;15.98;70.61;100335.59;5013897;28;20092;-69
2023/05/15 09:23:23;;;;;;;32.40;28.88;;;;;;;16.16;72.83;100334.19;5010229;28;20040;-67
2023/05/15 09:26:29;;;;;;;33.58;29.63;;;;;;;16.14;72.02;100319.44;5013780;28;20100;-67
2023/05/15 09:29:34;;;;;;;33.00;29.38;;;;;;;16.23;72.19;100324.81;5002833;28;20108;-69
2023/05/15 09:32:37;;;;;;;33.15;29.65;;;;;;;16.06;71.20;100320.03;5002562;28;20132;-68
2023/05/15 09:35:40;;;;;;;34.53;29.00;;;;;;;16.11;72.64;100315.22;5002697;28;20406;-68
2023/05/15 09:38:47;;;;;;;30.65;27.25;;;;;;;16.19;72.33;100327.81;5014694;28;20081;-68
2023/05/15 09:41:51;;;;;;;28.23;25.30;;;;;;;15.99;72.76;100327.59;5014619;28;20045;-68
2023/05/15 09:44:54;;;;;;;28.83;24.60;;;;;;;16.00;71.75;100324.00;5014611;28;20061;-68
2023/05/15 09:48:08;;;;;;;29.30;26.33;;;;;;;15.88;72.17;100314.38;5014511;28;20096;-68
2023/05/15 09:51:17;;;;;;;26.35;23.67;;;;;;;16.11;71.65;100309.13;5014419;28;20520;-68
2023/05/15 09:54:22;;;;;;;28.85;23.98;;;;;;;16.19;71.37;100312.84;5014505;28;20469;-68
2023/05/15 09:57:25;;;;;;;27.02;24.17;;;;;;;16.07;72.73;100308.53;5014441;28;20057;-68
2023/05/15 10:00:29;;;;;;;27.55;24.30;;;;;;;16.13;70.93;100307.22;5015215;28;20585;-68
2023/05/15 10:03:33;;;;;;;31.30;24.73;;;;;;;16.30;70.68;100311.97;5034051;28;20060;-68
2023/05/15 10:06:41;;;;;;;27.25;24.33;;;;;;;16.31;72.32;100310.19;5034077;28;20048;-68
2023/05/15 10:09:44;;;;;;;30.92;24.83;;;;;;;16.14;70.99;100314.16;5033887;28;20417;-68
2023/05/15 10:12:49;;;;;;;28.30;24.33;;;;;;;16.17;72.82;100313.91;5033795;28;20128;-68
2023/05/15 10:15:54;;;;;;;26.77;22.17;;;;;;;16.41;69.57;100293.50;5034027;28;20056;-72
2023/05/15 10:19:02;;;;;;;24.88;22.20;;;;;;;16.60;69.10;100297.28;5028556;28;20052;-71
2023/05/15 10:22:07;;;;;;;25.60;22.50;;;;;;;16.45;69.41;100299.38;5033796;28;20524;-71
2023/05/15 10:25:34;;;;;;;30.38;23.23;;;;;;;16.56;70.47;100294.06;5033657;28;20467;-70
2023/05/15 10:28:38;;;;;;;28.52;25.48;;;;;;;16.64;69.63;100288.16;5021686;28;20421;-70
2023/05/15 10:31:42;;;;;;;26.88;24.20;;;;;;;16.70;69.45;100288.50;5033294;28;20188;-72
2023/05/15 10:34:52;;;;;;;26.00;23.42;;;;;;;16.84;68.59;100282.09;5033416;28;20048;-87
2023/05/15 10:38:21;;;;;;;24.48;21.90;;;;;;;16.98;68.30;100278.34;5033684;28;20413;-70
2023/05/15 10:41:27;;;;;;;26.00;21.90;;;;;;;16.95;68.59;100274.16;5033616;28;20095;-70
2023/05/15 10:44:32;;;;;;;25.48;22.73;;;;;;;16.96;68.65;100270.53;5021261;28;20044;-70
2023/05/15 10:47:38;;;;;;;28.88;22.92;;;;;;;16.87;68.66;100273.94;5020990;28;20048;-71
2023/05/15 10:50:41;;;;;;;23.73;21.33;;;;;;;16.71;67.08;100260.28;5033127;28;20044;-70
2023/05/15 10:54:04;;;;;;;23.73;20.95;;;;;;;16.73;67.02;100251.28;5030893;28;20138;-71
2023/05/15 10:57:07;;;;;;;22.20;20.00;;;;;;;16.85;67.50;100252.13;5033092;28;20048;-71
2023/05/15 11:00:24;;;;;;;23.65;21.17;;;;;;;17.05;66.35;100249.63;5029355;28;20047;-71
2023/05/15 11:03:36;;;;;;;24.17;21.65;;;;;;;16.88;65.06;100241.28;5032641;28;20172;-71
2023/05/15 11:06:42;;;;;;;26.58;23.10;;;;;;;16.90;64.62;100226.13;5019892;28;20096;-71
2023/05/15 11:09:46;;;;;;;22.40;20.20;;;;;;;17.03;65.28;100222.47;5032572;28;20516;-72
2023/05/15 11:12:56;;;;;;;32.42;29.13;;;;;;;17.26;68.30;100218.75;5032743;28;20052;-69
2023/05/15 11:15:59;;;;;;;26.00;23.13;;;;;;;17.53;67.39;100219.97;5032828;28;20108;-71
2023/05/15 11:19:21;;;;;;;29.33;26.23;;;;;;;17.69;66.14;100208.91;5032593;28;20040;-71
2023/05/15 11:22:30;;;;;;;33.47;27.55;;;;;;;17.83;65.48;100200.63;5020644;28;20088;-78
2023/05/15 11:25:35;;;;;;;30.02;26.73;;;;;;;17.95;65.64;100201.38;5031456;28;20519;-70
2023/05/15 11:28:46;;;;;;;31.58;27.60;;;;;;;17.86;64.37;100195.91;5032182;28;20119;-72
2023/05/15 11:31:49;;;;;;;31.52;28.25;;;;;;;18.02;64.13;100198.03;5031433;28;20509;-72
2023/05/15 11:34:59;;;;;;;30.60;27.50;;;;;;;18.20;64.79;100192.94;5032596;28;20418;-72
2023/05/15 11:38:16;;;;;;;28.48;25.75;;;;;;;18.22;63.33;100185.69;5032838;28;20128;-72
2023/05/15 11:45:47;;;;;;;28.48;25.27;;;;;;;18.50;60.94;100184.00;5020406;28;20585;-72
2023/05/15 11:50:05;;;;;;;44.75;26.05;;;;;;;18.69;61.54;100183.16;5027914;28;20106;-72
2023/05/15 11:53:09;;;;;;;25.65;22.88;;;;;;;18.98;61.70;100177.03;5032742;28;20072;-71
2023/05/15 11:56:17;;;;;;;27.33;23.20;;;;;;;19.06;59.89;100182.47;5032293;28;20064;-70
2023/05/15 11:59:20;;;;;;;30.23;23.95;;;;;;;19.05;59.58;100172.84;5032326;28;20044;-70
2023/05/15 12:02:23;;;;;;;25.98;21.23;;;;;;;19.16;60.37;100180.63;5015423;28;20100;-69
2023/05/15 12:05:27;;;;;;;26.70;24.08;;;;;;;18.86;59.86;100178.16;5012692;28;20548;-70
2023/05/15 12:08:36;;;;;;;23.63;21.15;;;;;;;18.99;57.86;100173.41;5011348;28;20092;-70
2023/05/15 12:11:39;;;;;;;21.90;18.60;;;;;;;19.17;58.17;100170.84;5011417;28;20045;-71
2023/05/15 12:14:43;;;;;;;23.60;21.15;;;;;;;19.35;58.23;100168.28;5012654;28;20107;-70
2023/05/15 12:18:06;;;;;;;20.45;18.40;;;;;;;19.32;54.31;100161.44;5012573;28;20472;-70
2023/05/15 12:21:10;;;;;;;20.80;15.65;;;;;;;19.46;53.60;100158.34;5012643;28;20049;-69
2023/05/15 12:24:14;;;;;;;19.05;16.42;;;;;;;19.59;54.92;100159.78;5012640;28;20053;-70
2023/05/15 12:27:18;;;;;;;18.60;16.55;;;;;;;19.65;55.55;100159.25;5012809;28;20112;-69
2023/05/15 12:30:22;;;;;;;16.33;14.57;;;;;;;19.92;54.75;100155.75;5012832;28;20544;-69
2023/05/15 12:33:29;;;;;;;20.20;16.95;;;;;;;19.92;51.68;100151.28;5012455;28;20413;-69
2023/05/15 12:36:36;;;;;;;22.10;17.15;;;;;;;20.02;53.42;100156.50;4999155;28;20592;-69
2023/05/15 12:39:50;;;;;;;14.90;12.63;;;;;;;20.29;52.29;100157.44;5015947;28;20096;-69
2023/05/15 12:42:55;;;;;;;13.02;11.05;;;;;;;20.08;50.76;100144.47;5015838;28;20091;-69
2023/05/15 12:45:59;;;;;;;13.77;11.48;;;;;;;19.76;52.26;100153.75;5016072;28;20114;-69
2023/05/15 12:49:03;;;;;;;16.45;12.90;;;;;;;19.98;50.61;100144.53;5015727;28;21130;-69
2023/05/15 12:52:10;;;;;;;13.15;10.43;;;;;;;20.55;50.22;100144.22;5003446;28;20460;-69
2023/05/15 12:55:17;;;;;;;14.52;11.88;;;;;;;20.97;50.60;100141.72;5015676;28;20096;-69
2023/05/15 12:58:21;;;;;;;17.33;13.50;;;;;;;20.78;48.89;100153.41;5015630;28;20060;-69
2023/05/15 13:01:25;;;;;;;18.38;16.48;;;;;;;20.48;48.49;100157.25;5023888;28;20064;-69
2023/05/15 13:04:31;;;;;;;16.05;14.48;;;;;;;20.64;49.42;100144.19;5035259;28;20041;-69
2023/05/15 13:07:37;;;;;;;16.30;14.40;;;;;;;20.75;51.05;100142.25;5035004;28;20133;-69
2023/05/15 13:10:43;;;;;;;17.00;13.48;;;;;;;21.13;51.02;100144.47;5035124;28;20191;-69
2023/05/15 13:13:48;;;;;;;17.83;15.00;;;;;;;20.84;48.65;100136.84;5035268;28;20044;-69
2023/05/15 13:17:03;;;;;;;16.15;14.32;;;;;;;21.40;48.83;100137.31;5035223;28;20052;-69
2023/05/15 13:20:08;;;;;;;14.90;11.85;;;;;;;21.48;48.58;100137.38;5035055;28;20452;-69
2023/05/15 13:23:16;;;;;;;13.68;12.25;;;;;;;21.53;47.89;100140.38;5035112;28;20048;-69
2023/05/15 13:26:20;;;;;;;12.98;10.57;;;;;;;21.46;48.08;100151.81;5034661;28;20063;-72
2023/05/15 13:29:23;;;;;;;14.23;11.20;;;;;;;21.62;48.79;100154.53;5034790;28;20410;-75
2023/05/15 13:32:26;;;;;;;13.73;10.95;;;;;;;21.47;47.88;100151.66;5034547;28;20519;-73
2023/05/15 13:35:31;;;;;;;16.55;12.75;;;;;;;21.02;46.86;100152.72;5034626;28;20406;-75
2023/05/15 13:38:34;;;;;;;15.25;11.68;;;;;;;21.21;48.12;100150.84;5034020;28;20040;-75
2023/05/15 13:41:37;;;;;;;13.70;10.35;;;;;;;20.75;46.28;100151.06;5033401;28;20033;-70
2023/05/15 13:44:41;;;;;;;13.70;10.93;;;;;;;21.58;47.27;100140.72;5034537;28;20044;-70
2023/05/15 13:47:44;;;;;;;12.48;10.68;;;;;;;21.11;45.74;100142.97;5034188;28;20080;-73
2023/05/15 13:50:47;;;;;;;16.08;8.80;;;;;;;21.10;46.50;100149.28;5034568;28;20082;-74
2023/05/15 13:53:51;;;;;;;12.23;8.38;;;;;;;21.76;45.55;100139.78;5034306;28;20056;-75
2023/05/15 13:56:55;;;;;;;10.80;7.85;;;;;;;21.75;43.86;100146.09;5034617;28;20048;-73
2023/05/15 14:00:00;;;;;;;11.48;7.65;;;;;;;22.11;43.28;100144.00;5034528;28;20056;-74
2023/05/15 14:03:05;;;;;;;13.07;6.65;;;;;;;22.29;41.54;100127.94;5014454;28;20127;-72
2023/05/15 14:06:14;;;;;;;9.18;6.45;;;;;;;23.04;41.11;100135.75;5014463;28;20044;-73
2023/05/15 14:09:17;;;;;;;9.55;5.85;;;;;;;23.90;37.95;100128.72;5011681;28;20108;-74
2023/05/15 14:12:21;;;;;;;7.72;6.00;;;;;;;24.86;35.60;100123.81;5013252;28;20049;-74
2023/05/15 14:15:26;;;;;;;11.07;6.95;;;;;;;24.12;37.04;100124.38;5013155;28;20563;-75
2023/05/15 14:18:30;;;;;;;8.43;6.80;;;;;;;24.94;35.86;100145.09;5014098;28;20414;-75
2023/05/15 14:21:33;;;;;;;15.88;6.03;;;;;;;27.88;31.72;100129.72;5013991;28;20085;-73